Time;durP1;ratioP1;P1;durP2;ratioP2;P2;SDS_P1;SDS_P2;PMS_P1;PMS_P2;Temp;Humidity;BMP_temperature;BMP_pressure;BME280_temperature;BME280_humidity;BME280_pressure;Samples;Min_cycle;Max_cycle;Signal;HPM_P1;HPM_P2
2023/08/13 00:01:33;;;;;;;6.32;4.60;;;;;;;22.36;53.19;99708.69;5032727;28;20404;-77
2023/08/13 00:03:59;;;;;;;6.35;4.00;;;;;;;22.33;52.98;99709.50;5032646;28;20052;-77
2023/08/13 00:06:25;;;;;;;5.82;4.13;;;;;;;22.29;53.10;99698.91;5031276;28;20028;-77
2023/08/13 00:08:50;;;;;;;7.20;5.00;;;;;;;22.37;52.82;99698.91;5031352;28;20632;-77
2023/08/13 00:11:16;;;;;;;8.52;4.72;;;;;;;22.22;53.32;99700.97;5047842;28;20032;-77
2023/08/13 00:13:41;;;;;;;9.02;5.38;;;;;;;21.57;55.56;99710.31;5031081;28;20028;-77
2023/08/13 00:16:08;;;;;;;6.88;4.82;;;;;;;21.05;57.41;99708.59;5031105;28;20036;-77
2023/08/13 00:18:34;;;;;;;18.90;4.93;;;;;;;20.68;58.76;99706.78;5032329;28;20021;-77
2023/08/13 00:20:59;;;;;;;6.55;5.65;;;;;;;20.02;61.20;99702.72;5030975;28;20018;-77
2023/08/13 00:23:25;;;;;;;11.63;5.30;;;;;;;20.03;61.51;99702.34;5029324;28;20031;-77
2023/08/13 00:25:51;;;;;;;5.18;4.68;;;;;;;20.39;60.10;99695.25;5029650;28;20030;-77
2023/08/13 00:28:17;;;;;;;7.78;5.22;;;;;;;19.83;62.37;99703.78;5030856;28;20568;-77
2023/08/13 00:30:42;;;;;;;8.68;5.05;;;;;;;20.05;62.18;99704.78;5030811;28;20148;-77
2023/08/13 00:33:07;;;;;;;11.43;5.10;;;;;;;20.57;60.69;99701.84;5032124;28;20028;-77
2023/08/13 00:35:33;;;;;;;4.82;4.32;;;;;;;20.83;59.46;99699.97;5030600;28;20029;-77
2023/08/13 00:37:58;;;;;;;6.95;4.63;;;;;;;21.07;58.49;99700.47;5030972;28;20032;-77
2023/08/13 00:40:24;;;;;;;6.95;5.13;;;;;;;21.19;58.11;99699.28;5030386;28;20107;-76
2023/08/13 00:42:50;;;;;;;8.25;4.75;;;;;;;21.29;57.77;99700.53;5030780;28;20032;-77
2023/08/13 00:45:15;;;;;;;6.55;4.50;;;;;;;21.29;57.88;99697.69;5031777;28;20021;-77
2023/08/13 00:47:41;;;;;;;8.70;6.28;;;;;;;21.35;57.29;99700.94;5031818;28;20029;-77
2023/08/13 00:50:07;;;;;;;6.38;5.03;;;;;;;21.38;57.34;99698.09;5030475;28;20029;-77
2023/08/13 00:52:33;;;;;;;6.70;4.70;;;;;;;21.31;57.28;99701.75;5030488;28;20052;-77
2023/08/13 00:54:59;;;;;;;6.72;5.07;;;;;;;21.29;57.29;99714.75;5031603;28;20057;-77
2023/08/13 00:57:24;;;;;;;7.72;5.30;;;;;;;20.84;58.34;99721.50;5029698;28;20069;-77
2023/08/13 00:59:53;;;;;;;9.73;5.22;;;;;;;20.08;60.56;99708.84;5030410;28;20098;-77
2023/08/13 01:02:20;;;;;;;7.57;5.50;;;;;;;20.36;59.82;99715.94;5031654;28;20104;-77
2023/08/13 01:04:45;;;;;;;5.95;4.82;;;;;;;19.96;60.77;99715.66;5031470;28;20524;-77
2023/08/13 01:07:23;;;;;;;6.97;6.00;;;;;;;19.55;61.93;99727.81;5030190;28;20117;-77
2023/08/13 01:10:30;;;;;;;6.70;5.43;;;;;;;19.45;62.52;99715.19;5044987;28;20032;-77
2023/08/13 01:13:34;;;;;;;8.30;5.78;;;;;;;19.34;62.55;99720.75;5026337;28;20519;-77
2023/08/13 01:15:59;;;;;;;8.38;5.32;;;;;;;19.47;62.32;99713.59;5026979;28;20568;-77
2023/08/13 01:18:26;;;;;;;5.90;4.72;;;;;;;19.86;60.85;99717.16;5031315;28;20108;-77
2023/08/13 01:20:52;;;;;;;10.52;5.95;;;;;;;19.97;60.35;99715.25;5029864;28;20493;-77
2023/08/13 01:23:17;;;;;;;11.38;5.60;;;;;;;19.89;60.46;99713.53;5029987;28;20095;-77
2023/08/13 01:25:51;;;;;;;6.22;5.15;;;;;;;19.60;61.19;99716.13;5045441;28;20091;-77
2023/08/13 01:28:39;;;;;;;6.97;5.75;;;;;;;19.62;61.03;99725.06;5031235;28;20035;-77
2023/08/13 01:31:11;;;;;;;11.02;5.55;;;;;;;19.59;61.48;99714.50;5028808;28;20107;-77
2023/08/13 01:33:40;;;;;;;6.20;5.53;;;;;;;19.34;61.75;99715.88;5031180;28;20075;-77
2023/08/13 01:36:05;;;;;;;10.40;5.97;;;;;;;19.48;61.69;99723.72;5029234;28;20112;-77
2023/08/13 01:38:32;;;;;;;8.27;6.05;;;;;;;19.26;62.28;99719.88;5030187;28;20108;-77
2023/08/13 01:41:00;;;;;;;9.23;5.75;;;;;;;19.21;62.66;99717.38;5029619;28;20049;-77
2023/08/13 01:43:26;;;;;;;8.32;5.65;;;;;;;19.06;63.26;99717.22;5030000;28;20432;-77
2023/08/13 01:45:52;;;;;;;8.85;5.95;;;;;;;19.24;62.78;99718.63;5030916;28;20057;-77
2023/08/13 01:48:18;;;;;;;6.38;5.28;;;;;;;19.26;62.03;99710.53;5028749;28;20546;-77
2023/08/13 01:50:43;;;;;;;10.50;6.10;;;;;;;19.19;62.40;99717.78;5030189;28;20025;-77
2023/08/13 01:53:09;;;;;;;11.45;5.75;;;;;;;19.39;61.62;99725.25;5030953;28;20029;-77
2023/08/13 01:55:34;;;;;;;11.60;5.57;;;;;;;19.61;60.82;99720.59;5029542;28;20124;-77
2023/08/13 01:58:00;;;;;;;6.15;5.45;;;;;;;19.73;60.58;99723.16;5030906;28;20086;-77
2023/08/13 02:00:25;;;;;;;7.22;6.07;;;;;;;19.91;60.11;99725.34;5029477;28;20081;-77
2023/08/13 02:02:51;;;;;;;8.15;5.57;;;;;;;19.93;59.90;99720.13;5028341;28;20022;-77
2023/08/13 02:05:16;;;;;;;8.40;5.28;;;;;;;20.06;59.94;99724.25;5029853;28;20083;-77
2023/08/13 02:07:42;;;;;;;8.95;5.70;;;;;;;20.26;59.63;99721.13;5028521;28;20483;-77
2023/08/13 02:10:07;;;;;;;10.48;5.35;;;;;;;20.43;58.87;99721.66;5033436;28;20029;-77
2023/08/13 02:12:33;;;;;;;8.88;5.55;;;;;;;20.60;58.56;99718.09;5034742;28;20104;-77
2023/08/13 02:14:59;;;;;;;11.70;5.63;;;;;;;20.68;58.32;99718.16;5034592;28;20103;-77
2023/08/13 02:17:25;;;;;;;7.75;5.63;;;;;;;20.75;58.22;99726.69;5034713;28;20414;-77
2023/08/13 02:19:50;;;;;;;6.75;5.38;;;;;;;20.80;57.89;99714.97;5032116;28;20037;-77
2023/08/13 02:22:16;;;;;;;9.38;6.68;;;;;;;20.85;58.13;99725.97;5033795;28;20029;-77
2023/08/13 02:24:41;;;;;;;8.63;5.68;;;;;;;20.94;57.88;99724.78;5034556;28;20100;-77
2023/08/13 02:27:07;;;;;;;8.70;5.68;;;;;;;20.88;58.09;99733.72;5034334;28;20021;-77
2023/08/13 02:29:32;;;;;;;17.25;7.43;;;;;;;20.88;58.08;99733.72;5034509;28;20021;-77
2023/08/13 02:31:58;;;;;;;12.48;7.50;;;;;;;20.76;58.52;99736.88;5034301;28;20025;-77
2023/08/13 02:34:23;;;;;;;9.43;6.32;;;;;;;20.73;58.29;99734.81;5033163;28;20522;-77
2023/08/13 02:36:49;;;;;;;12.52;6.95;;;;;;;20.81;57.78;99730.81;5034188;28;20025;-77
2023/08/13 02:39:15;;;;;;;13.73;7.47;;;;;;;20.64;58.13;99725.84;5031528;28;20516;-77
2023/08/13 02:41:40;;;;;;;9.25;6.60;;;;;;;20.68;58.19;99723.84;5034116;28;20523;-77
2023/08/13 02:44:06;;;;;;;11.93;7.65;;;;;;;20.58;58.81;99736.78;5031927;28;20076;-77
2023/08/13 02:46:31;;;;;;;13.40;7.43;;;;;;;20.62;58.50;99743.28;5034089;28;20096;-77
2023/08/13 02:48:57;;;;;;;10.30;7.88;;;;;;;20.57;58.84;99744.47;5034150;28;20017;-77
2023/08/13 02:51:24;;;;;;;17.75;7.20;;;;;;;20.54;59.09;99745.28;5048064;28;20411;-77
2023/08/13 02:53:49;;;;;;;13.48;6.47;;;;;;;20.42;59.41;99729.34;5032642;28;20038;-77
2023/08/13 02:56:15;;;;;;;15.70;7.13;;;;;;;20.46;59.19;99740.75;5033880;28;20037;-77
2023/08/13 02:58:41;;;;;;;14.88;7.10;;;;;;;20.52;58.87;99741.19;5033056;28;20033;-77
2023/08/13 03:01:06;;;;;;;12.65;6.30;;;;;;;20.66;58.23;99732.75;5032548;28;20049;-77
2023/08/13 03:03:32;;;;;;;9.73;7.05;;;;;;;20.50;58.62;99726.56;5033771;28;20033;-77
2023/08/13 03:05:58;;;;;;;13.07;6.60;;;;;;;19.85;60.41;99730.56;5047660;28;20017;-75
2023/08/13 03:08:23;;;;;;;16.75;7.03;;;;;;;19.40;62.41;99729.72;5032767;28;20037;-79
2023/08/13 03:10:49;;;;;;;15.55;6.50;;;;;;;19.02;63.69;99721.19;5033610;28;20036;-76
2023/08/13 03:13:15;;;;;;;14.63;6.88;;;;;;;19.25;63.18;99731.59;5031793;28;20460;-76
2023/08/13 03:15:40;;;;;;;18.27;8.02;;;;;;;19.55;62.02;99736.34;5048838;28;20044;-76
2023/08/13 03:18:06;;;;;;;13.60;8.07;;;;;;;19.70;61.53;99738.13;5024565;28;20080;-76
2023/08/13 03:20:32;;;;;;;15.43;7.57;;;;;;;19.84;61.21;99745.13;5044356;28;20029;-76
2023/08/13 03:22:58;;;;;;;9.52;6.68;;;;;;;19.94;60.73;99738.78;5020693;28;20491;-77
2023/08/13 03:25:23;;;;;;;19.45;8.18;;;;;;;19.87;60.72;99741.50;5023867;28;20488;-77
2023/08/13 03:27:49;;;;;;;14.57;7.93;;;;;;;19.87;61.07;99747.19;5033021;28;20025;-77
2023/08/13 03:30:14;;;;;;;67.30;10.23;;;;;;;19.80;61.28;99747.13;5031987;28;20139;-76
2023/08/13 03:32:40;;;;;;;19.92;8.07;;;;;;;19.77;61.12;99743.84;5033264;28;20057;-77
2023/08/13 03:35:05;;;;;;;31.08;7.88;;;;;;;19.92;60.63;99744.81;5028724;28;20037;-78
2023/08/13 03:37:31;;;;;;;23.77;7.53;;;;;;;20.05;60.75;99753.03;5021912;28;20033;-78
2023/08/13 03:39:56;;;;;;;15.93;8.10;;;;;;;20.11;59.97;99751.47;5032842;28;20451;-77
2023/08/13 03:42:22;;;;;;;24.38;8.10;;;;;;;20.04;60.27;99742.91;5032715;28;20104;-74
2023/08/13 03:44:47;;;;;;;18.15;6.90;;;;;;;19.73;61.47;99745.84;5024001;28;20037;-76
2023/08/13 03:47:13;;;;;;;16.92;7.55;;;;;;;19.85;61.02;99741.09;5027026;28;20033;-76
2023/08/13 03:49:38;;;;;;;11.52;7.45;;;;;;;19.92;60.85;99744.00;5032316;28;20026;-76
2023/08/13 03:52:04;;;;;;;16.58;7.65;;;;;;;19.58;61.88;99732.75;5031560;28;20041;-75
2023/08/13 03:54:30;;;;;;;16.35;7.97;;;;;;;19.16;63.56;99746.88;5028938;28;20065;-76
2023/08/13 03:56:56;;;;;;;11.65;7.70;;;;;;;19.07;64.50;99752.06;5024946;28;20084;-75
2023/08/13 03:59:21;;;;;;;22.98;8.10;;;;;;;18.99;65.24;99736.91;5009962;28;20562;-75
2023/08/13 04:01:47;;;;;;;24.45;8.60;;;;;;;19.11;65.14;99755.72;5025932;28;20112;-76
2023/08/13 04:04:12;;;;;;;23.15;8.02;;;;;;;19.29;64.79;99749.44;5026581;28;20080;-76
2023/08/13 04:06:38;;;;;;;15.27;7.22;;;;;;;19.26;64.76;99748.22;5030823;28;20472;-76
2023/08/13 04:09:04;;;;;;;16.77;8.00;;;;;;;19.28;65.15;99744.97;5031882;28;20033;-76
2023/08/13 04:11:29;;;;;;;10.68;7.70;;;;;;;19.15;65.48;99762.25;5028305;28;20029;-74
2023/08/13 04:13:55;;;;;;;13.20;7.50;;;;;;;18.72;67.14;99756.03;5026562;28;20021;-76
2023/08/13 04:16:20;;;;;;;15.25;7.20;;;;;;;18.76;67.38;99752.03;5031885;28;20033;-76
2023/08/13 04:18:46;;;;;;;14.55;7.68;;;;;;;18.75;67.77;99753.22;5032349;28;20030;-76
2023/08/13 04:21:11;;;;;;;21.55;8.93;;;;;;;18.77;67.87;99762.19;5029226;28;20489;-76
2023/08/13 04:23:37;;;;;;;14.57;8.25;;;;;;;19.00;67.40;99766.13;5030207;28;20060;-76
2023/08/13 04:26:02;;;;;;;15.68;6.80;;;;;;;18.88;67.49;99750.97;5032232;28;20030;-76
2023/08/13 04:28:28;;;;;;;13.05;7.10;;;;;;;18.77;68.22;99750.00;5032230;28;20025;-76
2023/08/13 04:30:54;;;;;;;16.35;7.78;;;;;;;18.84;68.23;99754.94;5029012;28;20053;-76
2023/08/13 04:33:21;;;;;;;12.15;7.03;;;;;;;19.03;67.78;99754.84;5029043;28;20033;-76
2023/08/13 04:35:51;;;;;;;14.73;7.45;;;;;;;19.07;67.75;99755.69;5032055;28;20022;-76
2023/08/13 04:38:17;;;;;;;11.55;7.07;;;;;;;19.14;67.68;99757.00;5044145;28;20033;-76
2023/08/13 04:40:46;;;;;;;12.57;7.53;;;;;;;19.16;67.72;99760.25;5028956;28;20062;-76
2023/08/13 04:43:12;;;;;;;11.60;7.53;;;;;;;19.19;67.42;99756.63;5030553;28;20499;-76
2023/08/13 04:45:37;;;;;;;9.80;7.13;;;;;;;19.20;67.36;99750.59;5029786;28;20033;-76
2023/08/13 04:48:03;;;;;;;13.55;7.68;;;;;;;19.30;67.21;99751.06;5030327;28;20037;-76
2023/08/13 04:50:29;;;;;;;15.70;8.23;;;;;;;19.11;68.05;99766.25;5028551;28;20046;-76
2023/08/13 04:52:54;;;;;;;16.92;7.82;;;;;;;19.32;67.32;99760.03;5031628;28;20092;-76
2023/08/13 04:55:20;;;;;;;14.68;7.82;;;;;;;19.29;67.05;99760.78;5031590;28;20115;-76
2023/08/13 04:57:45;;;;;;;9.32;6.45;;;;;;;19.19;67.27;99759.47;5046782;28;20025;-76
2023/08/13 05:00:12;;;;;;;11.60;6.78;;;;;;;19.22;67.11;99758.69;5027930;28;20040;-76
2023/08/13 05:02:37;;;;;;;11.23;7.38;;;;;;;19.25;67.12;99772.09;5024612;28;20496;-76
2023/08/13 05:05:03;;;;;;;14.55;6.75;;;;;;;19.32;66.95;99760.84;5029694;28;20076;-76
2023/08/13 05:07:28;;;;;;;14.68;6.78;;;;;;;19.53;66.30;99767.13;5031129;28;20036;-76
2023/08/13 05:09:54;;;;;;;8.48;6.05;;;;;;;19.66;65.33;99764.84;5045500;28;20021;-76
2023/08/13 05:12:19;;;;;;;12.77;6.40;;;;;;;19.68;64.58;99765.25;5030395;28;20025;-76
2023/08/13 05:14:45;;;;;;;8.95;6.15;;;;;;;19.78;64.43;99768.19;5041930;28;20057;-75
2023/08/13 05:17:21;;;;;;;11.25;6.40;;;;;;;19.96;63.96;99776.09;5013500;28;20037;-76
2023/08/13 05:19:47;;;;;;;12.90;7.03;;;;;;;20.06;63.43;99778.22;5026343;28;20034;-76
2023/08/13 05:22:13;;;;;;;15.40;6.53;;;;;;;20.17;62.74;99783.97;5029432;28;20025;-74
2023/08/13 05:24:38;;;;;;;7.15;5.95;;;;;;;20.13;62.85;99785.97;5025389;28;20037;-74
2023/08/13 05:27:04;;;;;;;10.63;6.18;;;;;;;20.15;62.75;99774.19;5029389;28;20022;-73
2023/08/13 05:29:29;;;;;;;23.58;6.10;;;;;;;20.38;62.37;99782.50;5031259;28;20025;-74
2023/08/13 05:31:55;;;;;;;11.18;5.88;;;;;;;20.55;62.03;99783.84;5027405;28;20535;-74
2023/08/13 05:34:21;;;;;;;10.23;5.65;;;;;;;20.65;61.60;99790.00;5031046;28;20515;-73
2023/08/13 05:36:46;;;;;;;9.75;6.00;;;;;;;20.80;61.19;99782.34;5025738;28;20018;-73
2023/08/13 05:39:12;;;;;;;10.70;5.88;;;;;;;20.77;61.11;99787.63;5014145;28;20108;-74
2023/08/13 05:41:37;;;;;;;12.65;6.30;;;;;;;21.09;60.60;99782.53;5026573;28;20577;-74
2023/08/13 05:44:03;;;;;;;6.20;5.35;;;;;;;21.12;60.33;99778.88;5023092;28;20056;-75
2023/08/13 05:46:28;;;;;;;14.73;5.68;;;;;;;21.36;59.54;99787.91;5025387;28;20079;-74
2023/08/13 05:48:54;;;;;;;11.20;5.57;;;;;;;21.22;59.48;99785.81;5025313;28;20032;-74
2023/08/13 05:51:20;;;;;;;12.32;5.57;;;;;;;21.41;59.03;99787.50;5028853;28;20047;-74
2023/08/13 05:53:46;;;;;;;19.48;5.80;;;;;;;21.66;58.22;99779.06;5026934;28;20021;-75
2023/08/13 05:56:11;;;;;;;9.48;5.10;;;;;;;21.88;56.39;99777.06;5030029;28;20079;-75
2023/08/13 05:58:36;;;;;;;12.93;5.30;;;;;;;21.69;56.41;99786.00;5030983;28;20404;-74
2023/08/13 06:01:03;;;;;;;7.22;4.90;;;;;;;21.77;56.01;99778.28;5030852;28;20489;-73
2023/08/13 06:03:28;;;;;;;12.13;4.70;;;;;;;21.83;55.05;99782.34;5028205;28;20457;-74
2023/08/13 06:05:55;;;;;;;7.90;4.70;;;;;;;22.05;54.66;99780.34;5030807;28;20060;-74
2023/08/13 06:08:20;;;;;;;6.00;4.25;;;;;;;22.06;54.67;99786.81;5022276;28;20194;-74
2023/08/13 06:10:46;;;;;;;4.93;4.25;;;;;;;22.18;54.40;99779.94;5022563;28;20037;-74
2023/08/13 06:13:12;;;;;;;9.10;5.28;;;;;;;22.44;54.18;99776.63;5020494;28;20516;-75
2023/08/13 06:15:38;;;;;;;6.45;5.18;;;;;;;22.58;53.87;99781.53;5026306;28;20105;-74
2023/08/13 06:18:03;;;;;;;14.68;4.88;;;;;;;22.56;53.81;99784.00;5030708;28;20518;-74
2023/08/13 06:20:30;;;;;;;6.82;4.63;;;;;;;22.85;52.45;99783.91;5030633;28;20025;-75
2023/08/13 06:22:56;;;;;;;6.93;4.60;;;;;;;22.56;52.25;99792.53;5029284;28;20060;-74
2023/08/13 06:25:21;;;;;;;5.30;4.57;;;;;;;22.83;52.01;99777.81;5030493;28;20093;-74
2023/08/13 06:27:47;;;;;;;9.93;4.60;;;;;;;22.99;50.99;99788.75;5030588;28;20036;-74
2023/08/13 06:30:12;;;;;;;10.23;4.82;;;;;;;23.14;50.49;99788.69;5028105;28;20431;-73
2023/08/13 06:32:37;;;;;;;11.57;4.50;;;;;;;23.44;49.10;99786.56;5027715;28;20385;-74
2023/08/13 06:35:03;;;;;;;8.27;4.35;;;;;;;23.53;49.08;99793.41;5030458;28;20030;-74
2023/08/13 06:37:30;;;;;;;4.82;3.92;;;;;;;23.72;47.97;99787.59;5030709;28;20059;-75
2023/08/13 06:39:55;;;;;;;6.28;5.05;;;;;;;23.53;48.10;99784.03;5030281;28;20029;-73
2023/08/13 06:42:20;;;;;;;8.13;4.90;;;;;;;23.84;47.41;99787.09;5030263;28;20061;-74
2023/08/13 06:44:46;;;;;;;9.23;4.63;;;;;;;24.07;46.94;99786.56;5030531;28;20072;-74
2023/08/13 06:47:12;;;;;;;8.30;5.43;;;;;;;24.19;46.77;99782.38;5028945;28;20032;-73
2023/08/13 06:49:38;;;;;;;14.07;5.43;;;;;;;24.37;46.02;99778.53;5030484;28;20024;-74
2023/08/13 06:52:04;;;;;;;5.65;4.22;;;;;;;24.49;45.24;99783.72;5030474;28;20025;-74
2023/08/13 06:54:29;;;;;;;5.85;4.78;;;;;;;24.40;44.97;99780.56;5031406;28;20048;-75
2023/08/13 06:56:55;;;;;;;7.40;4.65;;;;;;;24.56;45.14;99779.19;5034032;28;20021;-74
2023/08/13 06:59:21;;;;;;;7.50;4.40;;;;;;;24.61;43.74;99773.00;5032591;28;20104;-73
2023/08/13 07:01:46;;;;;;;25.92;5.50;;;;;;;24.43;43.84;99774.00;5018828;28;20041;-74
2023/08/13 07:04:12;;;;;;;8.30;4.45;;;;;;;24.66;43.76;99783.97;5019657;28;20025;-75
2023/08/13 07:06:37;;;;;;;8.93;4.18;;;;;;;25.00;43.34;99783.22;5021616;28;20025;-76
2023/08/13 07:09:03;;;;;;;8.93;4.22;;;;;;;25.27;41.96;99768.16;5033289;28;20059;-74
2023/08/13 07:11:32;;;;;;;5.93;4.28;;;;;;;25.28;41.20;99768.97;5033712;28;20043;-75
2023/08/13 07:13:58;;;;;;;6.80;4.07;;;;;;;25.49;40.65;99773.63;5031919;28;20036;-73
2023/08/13 07:16:23;;;;;;;8.65;3.72;;;;;;;25.40;40.82;99770.44;5032320;28;20480;-73
2023/08/13 07:18:48;;;;;;;6.65;4.63;;;;;;;25.27;40.95;99765.31;5033645;28;20017;-73
2023/08/13 07:21:14;;;;;;;4.53;4.03;;;;;;;25.25;40.88;99764.94;5032476;28;20026;-73
2023/08/13 07:23:40;;;;;;;5.40;3.58;;;;;;;25.16;40.86;99771.19;5032172;28;20029;-73
2023/08/13 07:26:06;;;;;;;5.20;3.90;;;;;;;25.59;40.51;99768.97;5032147;28;20025;-74
2023/08/13 07:28:34;;;;;;;7.97;4.05;;;;;;;25.84;39.66;99768.63;5033092;28;20412;-75
2023/08/13 07:31:03;;;;;;;13.05;3.88;;;;;;;26.06;39.17;99768.25;5031969;28;20025;-75
2023/08/13 07:33:30;;;;;;;6.57;3.93;;;;;;;25.82;39.24;99768.22;5032925;28;20519;-75
2023/08/13 07:35:56;;;;;;;4.20;3.80;;;;;;;25.40;39.11;99768.41;5022456;28;20101;-75
2023/08/13 07:38:22;;;;;;;8.80;4.20;;;;;;;25.53;39.49;99759.28;5012099;28;20034;-75
2023/08/13 07:40:47;;;;;;;11.77;3.92;;;;;;;25.93;39.35;99765.19;5014500;28;20049;-75
2023/08/13 07:43:13;;;;;;;4.38;3.88;;;;;;;26.52;40.12;99765.03;5025857;28;20029;-75
2023/08/13 07:45:38;;;;;;;10.80;3.78;;;;;;;26.51;36.71;99767.09;5022438;28;20114;-80
2023/08/13 07:48:04;;;;;;;7.75;4.10;;;;;;;26.61;36.65;99768.13;5016386;28;20033;-73
2023/08/13 07:50:30;;;;;;;5.38;3.58;;;;;;;26.89;36.33;99763.94;5019483;28;20022;-75
2023/08/13 07:52:55;;;;;;;5.57;3.85;;;;;;;26.89;36.17;99765.97;5021314;28;20099;-74
2023/08/13 07:55:21;;;;;;;7.13;3.88;;;;;;;27.19;35.82;99767.81;5017852;28;20381;-74
2023/08/13 07:57:46;;;;;;;8.88;4.05;;;;;;;27.37;35.58;99754.31;5009546;28;20018;-74
2023/08/13 08:00:12;;;;;;;8.60;3.85;;;;;;;27.85;35.45;99752.81;5026155;28;20021;-74
2023/08/13 08:02:38;;;;;;;9.07;4.47;;;;;;;28.04;35.66;99750.31;5024879;28;20100;-73
2023/08/13 08:05:05;;;;;;;4.68;3.60;;;;;;;28.13;34.69;99755.41;5021607;28;20029;-75
2023/08/13 08:07:31;;;;;;;6.13;3.45;;;;;;;28.29;33.76;99757.50;5020473;28;20037;-74
2023/08/13 08:09:57;;;;;;;10.45;3.70;;;;;;;28.42;32.99;99751.84;5026050;28;20041;-75
2023/08/13 08:12:22;;;;;;;5.32;3.60;;;;;;;28.68;33.63;99740.44;5026245;28;20041;-74
2023/08/13 08:14:48;;;;;;;4.00;3.30;;;;;;;28.85;32.84;99749.84;5027207;28;20021;-75
2023/08/13 08:17:13;;;;;;;14.32;3.72;;;;;;;28.91;32.94;99745.13;5026980;28;20025;-75
2023/08/13 08:19:39;;;;;;;5.05;3.70;;;;;;;28.69;31.57;99736.28;5028036;28;20044;-75
2023/08/13 08:22:04;;;;;;;6.18;3.70;;;;;;;28.87;32.56;99732.94;5027013;28;20036;-75
2023/08/13 08:24:30;;;;;;;5.53;4.07;;;;;;;28.04;31.33;99733.06;5027016;28;20024;-75
2023/08/13 08:26:55;;;;;;;9.15;3.10;;;;;;;28.58;32.53;99736.59;5015580;28;20408;-75
2023/08/13 08:29:20;;;;;;;5.63;3.83;;;;;;;29.00;31.46;99733.78;5016740;28;20065;-75
2023/08/13 08:31:46;;;;;;;11.07;3.63;;;;;;;29.26;31.38;99739.59;5016447;28;20025;-73
2023/08/13 08:34:11;;;;;;;7.05;3.38;;;;;;;29.60;30.95;99733.66;5031912;28;20512;-73
2023/08/13 08:36:37;;;;;;;10.30;3.60;;;;;;;29.63;30.94;99726.97;5025585;28;20028;-72
2023/08/13 08:39:03;;;;;;;6.38;3.75;;;;;;;29.52;29.02;99727.31;5018143;28;20028;-73
2023/08/13 08:41:31;;;;;;;7.68;3.60;;;;;;;29.61;29.70;99729.50;5023613;28;20480;-72
2023/08/13 08:43:59;;;;;;;11.20;3.92;;;;;;;29.61;30.62;99733.16;5031082;28;20083;-73
2023/08/13 08:46:27;;;;;;;9.65;3.30;;;;;;;29.41;30.21;99725.53;5031952;28;20427;-74
2023/08/13 08:48:53;;;;;;;12.98;4.30;;;;;;;29.33;29.92;99729.91;5030676;28;20484;-72
2023/08/13 08:51:21;;;;;;;11.32;4.03;;;;;;;29.19;29.96;99728.28;5029309;28;20028;-73
2023/08/13 08:53:49;;;;;;;41.15;6.72;;;;;;;29.20;29.88;99729.91;5026512;28;20160;-75
2023/08/13 08:56:14;;;;;;;5.35;4.00;;;;;;;29.32;30.47;99721.72;5020118;28;20052;-74
2023/08/13 08:58:40;;;;;;;10.55;3.35;;;;;;;29.44;28.89;99714.41;5041104;28;20033;-76
2023/08/13 09:01:06;;;;;;;4.72;3.13;;;;;;;29.04;29.89;99715.59;5025211;28;20033;-72
2023/08/13 09:03:31;;;;;;;5.18;2.90;;;;;;;28.96;30.19;99721.56;5010496;28;20037;-78
2023/08/13 09:05:57;;;;;;;5.80;3.13;;;;;;;29.08;29.22;99719.16;5021916;28;20492;-77
2023/08/13 09:08:22;;;;;;;16.83;3.92;;;;;;;29.18;30.15;99723.78;5037834;28;20060;-77
2023/08/13 09:10:48;;;;;;;4.25;2.50;;;;;;;28.79;29.07;99715.03;5028207;28;20032;-77
2023/08/13 09:13:13;;;;;;;7.00;3.17;;;;;;;28.55;29.85;99703.78;5027620;28;20499;-77
2023/08/13 09:15:43;;;;;;;11.15;4.72;;;;;;;28.71;30.31;99711.53;5026193;28;20040;-78
2023/08/13 09:18:10;;;;;;;;;;;;;;;29.03;30.32;99713.97;5026647;28;20041;-76
2023/08/13 09:20:43;;;;;;;4.28;3.40;;;;;;;29.32;29.50;99698.69;5025842;28;19916;-75
2023/08/13 09:23:08;;;;;;;11.35;3.65;;;;;;;29.64;28.50;99696.88;5039275;28;20033;-74
2023/08/13 09:25:34;;;;;;;6.80;3.08;;;;;;;29.30;29.20;99696.28;5030666;28;20021;-75
2023/08/13 09:27:59;;;;;;;6.82;3.67;;;;;;;29.21;29.75;99691.22;5024132;28;20037;-75
2023/08/13 09:30:28;;;;;;;7.57;3.40;;;;;;;29.18;30.12;99689.22;5019821;28;20037;-75
2023/08/13 09:32:57;;;;;;;9.45;3.05;;;;;;;29.52;29.09;99686.97;5016513;28;20029;-77
2023/08/13 09:35:23;;;;;;;5.35;2.88;;;;;;;29.71;28.64;99693.75;5020852;28;20119;-76
2023/08/13 09:37:48;;;;;;;3.67;2.85;;;;;;;29.62;29.56;99691.56;5022932;28;20056;-77
2023/08/13 09:40:13;;;;;;;3.20;2.90;;;;;;;29.30;29.42;99696.28;5024013;28;20393;-75
2023/08/13 09:42:42;;;;;;;3.80;3.08;;;;;;;29.31;29.45;99686.38;5039966;28;20126;-76
2023/08/13 09:45:09;;;;;;;4.60;3.00;;;;;;;29.64;29.12;99683.28;5027358;28;20033;-76
2023/08/13 09:47:36;;;;;;;7.35;3.08;;;;;;;29.87;28.63;99680.47;5027755;28;20099;-77
2023/08/13 09:50:03;;;;;;;8.32;2.97;;;;;;;29.67;28.92;99682.34;5030341;28;20034;-76
2023/08/13 09:52:31;;;;;;;6.97;3.50;;;;;;;30.02;28.25;99681.59;5028967;28;20048;-76
2023/08/13 09:55:03;;;;;;;10.27;3.20;;;;;;;30.23;28.60;99694.50;5023635;28;20095;-76
2023/08/13 09:57:31;;;;;;;8.55;3.03;;;;;;;30.27;28.78;99691.47;5023558;28;20099;-76
2023/08/13 09:59:58;;;;;;;4.15;3.40;;;;;;;30.43;28.54;99684.72;5018740;28;20532;-76
2023/08/13 10:02:25;;;;;;;4.47;3.40;;;;;;;30.49;27.99;99679.16;5018849;28;20053;-77
2023/08/13 10:04:52;;;;;;;4.13;3.08;;;;;;;30.66;27.83;99680.59;5027509;28;20029;-76
2023/08/13 10:07:19;;;;;;;6.03;2.78;;;;;;;30.86;27.61;99688.09;5019439;28;20401;-76
2023/08/13 10:09:45;;;;;;;6.30;3.20;;;;;;;30.52;27.69;99686.84;5019263;28;20025;-76
2023/08/13 10:12:11;;;;;;;6.82;3.45;;;;;;;30.14;28.25;99690.69;5025225;28;20033;-76
2023/08/13 10:14:37;;;;;;;7.30;3.13;;;;;;;30.31;28.41;99688.44;5026460;28;20030;-77
2023/08/13 10:17:05;;;;;;;3.58;2.67;;;;;;;30.46;28.23;99688.75;5025392;28;20459;-76
2023/08/13 10:19:36;;;;;;;5.75;2.85;;;;;;;30.08;28.40;99676.06;5021415;28;20026;-76
2023/08/13 10:22:01;;;;;;;4.25;3.08;;;;;;;29.82;28.30;99668.28;5027445;28;20116;-75
2023/08/13 10:24:30;;;;;;;7.43;3.95;;;;;;;29.90;29.07;99668.00;5032572;28;20044;-76
2023/08/13 10:26:59;;;;;;;3.72;2.88;;;;;;;30.03;29.05;99657.25;5028832;28;20423;-76
2023/08/13 10:29:35;;;;;;;9.43;4.05;;;;;;;29.91;28.78;99673.31;5029541;28;20412;-76
2023/08/13 10:32:09;;;;;;;7.60;2.85;;;;;;;29.93;28.18;99669.97;5032343;28;20033;-76
2023/08/13 10:34:40;;;;;;;3.28;2.83;;;;;;;29.92;29.21;99671.22;5035391;28;20056;-76
2023/08/13 10:37:19;;;;;;;8.30;3.45;;;;;;;29.55;30.21;99663.78;5032261;28;20041;-75
2023/08/13 10:39:47;;;;;;;3.83;3.40;;;;;;;29.73;30.05;99662.41;5031764;28;20083;-76
2023/08/13 10:42:27;;;;;;;8.63;3.08;;;;;;;29.72;29.13;99655.03;5027514;28;20067;-76
2023/08/13 10:44:54;;;;;;;4.40;3.17;;;;;;;30.03;28.98;99656.47;5041919;28;20124;-76
2023/08/13 10:47:23;;;;;;;5.00;3.35;;;;;;;30.00;28.27;99663.16;5026299;28;20064;-76
2023/08/13 10:49:48;;;;;;;8.67;3.27;;;;;;;30.34;28.68;99656.59;5045217;28;20448;-76
2023/08/13 10:52:14;;;;;;;4.68;2.83;;;;;;;30.60;28.46;99658.56;5033829;28;20207;-76
2023/08/13 10:54:40;;;;;;;3.92;2.70;;;;;;;30.81;28.77;99654.88;5027802;28;20495;-76
2023/08/13 10:57:05;;;;;;;5.28;2.80;;;;;;;30.93;28.67;99663.91;5029379;28;20064;-76
2023/08/13 10:59:37;;;;;;;6.57;3.20;;;;;;;30.74;28.33;99657.22;5030333;28;20044;-76
2023/08/13 11:02:13;;;;;;;11.52;2.90;;;;;;;30.73;27.98;99655.63;5025273;28;20412;-76
2023/08/13 11:04:43;;;;;;;13.40;3.45;;;;;;;30.59;28.42;99648.28;5028362;28;20087;-75
2023/08/13 11:07:10;;;;;;;3.65;3.17;;;;;;;30.35;28.17;99648.75;5023483;28;20510;-75
2023/08/13 11:09:37;;;;;;;4.43;3.22;;;;;;;30.16;28.39;99642.00;5029569;28;20037;-76
2023/08/13 11:12:05;;;;;;;4.45;2.88;;;;;;;30.46;28.73;99639.69;5033899;28;20061;-76
2023/08/13 11:14:30;;;;;;;7.03;3.03;;;;;;;30.65;28.16;99638.59;5026229;28;20032;-76
2023/08/13 11:16:56;;;;;;;4.07;2.60;;;;;;;30.87;27.96;99636.97;5020690;28;20036;-76
2023/08/13 11:19:22;;;;;;;6.97;2.55;;;;;;;31.18;27.70;99634.06;5026407;28;20033;-76
2023/08/13 11:21:48;;;;;;;3.15;2.67;;;;;;;31.24;27.04;99628.50;5025544;28;20029;-75
2023/08/13 11:24:14;;;;;;;3.53;2.65;;;;;;;31.57;26.36;99622.19;5025627;28;20080;-75
2023/08/13 11:26:40;;;;;;;9.00;3.03;;;;;;;31.83;26.05;99619.06;5024022;28;20094;-74